Time;durP1;ratioP1;P1;durP2;ratioP2;P2;SDS_P1;SDS_P2;PMS_P1;PMS_P2;Temp;Humidity;BMP_temperature;BMP_pressure;BME280_temperature;BME280_humidity;BME280_pressure;Samples;Min_cycle;Max_cycle;Signal;HPM_P1;HPM_P2
2022/07/19 00:02:00;;;;;;;7.50;5.07;;;19.70;99.90;;;;;;5075834;28;20023;-52
2022/07/19 00:04:26;;;;;;;6.50;4.60;;;19.70;99.90;;;;;;5071909;28;20054;-50
2022/07/19 00:06:54;;;;;;;6.85;4.40;;;19.60;99.90;;;;;;5079116;28;20124;-47
2022/07/19 00:09:21;;;;;;;5.13;4.53;;;19.60;99.90;;;;;;5069488;28;20071;-49
2022/07/19 00:11:46;;;;;;;7.53;4.63;;;19.60;99.90;;;;;;5070254;28;20048;-46
2022/07/19 00:14:12;;;;;;;6.18;4.18;;;19.60;99.90;;;;;;5071735;28;20043;-51
2022/07/19 00:16:37;;;;;;;6.00;4.10;;;19.60;99.90;;;;;;5077190;28;20054;-49
2022/07/19 00:19:03;;;;;;;5.90;4.40;;;19.50;99.90;;;;;;5075095;28;20046;-51
2022/07/19 00:21:29;;;;;;;6.53;4.57;;;19.50;99.90;;;;;;5070444;28;20102;-49
2022/07/19 00:23:54;;;;;;;9.52;5.13;;;19.50;99.90;;;;;;5072424;28;20059;-51
2022/07/19 00:26:20;;;;;;;9.85;5.50;;;19.40;99.90;;;;;;5075020;28;20040;-51
2022/07/19 00:28:45;;;;;;;10.20;5.90;;;19.40;99.90;;;;;;5074999;28;20382;-48
2022/07/19 00:31:11;;;;;;;7.03;5.53;;;19.50;99.90;;;;;;5073470;28;20036;-51
2022/07/19 00:33:36;;;;;;;8.98;5.55;;;19.30;99.90;;;;;;5069377;28;20059;-52
2022/07/19 00:36:02;;;;;;;9.90;5.63;;;19.60;99.90;;;;;;5054680;28;20036;-51
2022/07/19 00:38:28;;;;;;;8.25;5.50;;;19.40;99.90;;;;;;5074147;28;20091;-48
2022/07/19 00:40:53;;;;;;;7.50;5.63;;;19.30;99.90;;;;;;5065613;28;20134;-52
2022/07/19 00:43:19;;;;;;;7.07;6.13;;;19.30;99.90;;;;;;5070448;28;20379;-50
2022/07/19 00:45:45;;;;;;;7.03;5.20;;;19.20;99.90;;;;;;5069831;28;20137;-50
2022/07/19 00:48:10;;;;;;;5.32;4.82;;;19.20;99.90;;;;;;5067415;28;20454;-50
2022/07/19 00:50:36;;;;;;;8.77;5.25;;;19.10;99.90;;;;;;5069742;28;20771;-52
2022/07/19 00:53:04;;;;;;;6.97;5.57;;;19.10;99.90;;;;;;5068395;28;20066;-48
2022/07/19 00:55:32;;;;;;;7.93;5.25;;;19.10;99.90;;;;;;5066830;28;20719;-52
2022/07/19 00:57:59;;;;;;;6.07;5.47;;;19.10;99.90;;;;;;5076140;28;20473;-51
2022/07/19 01:00:26;;;;;;;5.80;5.07;;;19.00;99.90;;;;;;5071742;28;20062;-49
2022/07/19 01:02:52;;;;;;;9.63;6.00;;;19.00;99.90;;;;;;5072722;28;20044;-50
2022/07/19 01:05:18;;;;;;;8.38;6.32;;;19.00;99.90;;;;;;5070724;28;20040;-51
2022/07/19 01:07:44;;;;;;;8.15;5.60;;;19.00;99.90;;;;;;5075304;28;20048;-52
2022/07/19 01:10:12;;;;;;;6.95;5.53;;;19.00;99.90;;;;;;5072419;28;20209;-51
2022/07/19 01:12:39;;;;;;;7.25;5.25;;;19.00;99.90;;;;;;5070164;28;20080;-48
2022/07/19 01:15:21;;;;;;;9.23;5.87;;;19.00;99.90;;;;;;5065525;28;20540;-52
2022/07/19 01:17:48;;;;;;;6.15;5.43;;;19.00;99.90;;;;;;5071810;28;20394;-53
2022/07/19 01:20:14;;;;;;;6.10;5.50;;;18.90;99.90;;;;;;5072215;28;20041;-52
2022/07/19 01:22:41;;;;;;;8.52;5.93;;;18.90;99.90;;;;;;5070813;28;20072;-53
2022/07/19 01:25:07;;;;;;;6.43;5.45;;;18.90;99.90;;;;;;5073717;28;20074;-51
2022/07/19 01:27:59;;;;;;;7.72;5.90;;;18.80;99.90;;;;;;5071275;28;20036;-52
2022/07/19 01:30:26;;;;;;;6.05;5.45;;;18.80;99.90;;;;;;5071217;28;20119;-51
2022/07/19 01:32:53;;;;;;;6.53;5.27;;;18.80;99.90;;;;;;5071266;28;20032;-48
2022/07/19 01:35:19;;;;;;;7.85;5.75;;;18.80;99.90;;;;;;5075191;28;20806;-48
2022/07/19 01:37:46;;;;;;;7.78;6.05;;;18.70;99.90;;;;;;5076228;28;20510;-52
2022/07/19 01:40:15;;;;;;;7.97;5.65;;;18.70;99.90;;;;;;5067985;28;20490;-52
2022/07/19 01:42:41;;;;;;;7.30;5.60;;;18.70;99.90;;;;;;5073688;28;20446;-49
2022/07/19 01:45:09;;;;;;;7.00;6.13;;;18.70;99.90;;;;;;5073470;28;20032;-51
2022/07/19 01:47:35;;;;;;;;;;;18.70;99.90;;;;;;5072327;28;20035;-51
2022/07/19 01:50:00;;;;;;;6.90;5.85;;;18.60;99.90;;;;;;5087299;22;19921;-52
2022/07/19 01:52:26;;;;;;;6.25;5.53;;;18.60;99.90;;;;;;5057774;22;20107;-52
2022/07/19 01:54:52;;;;;;;7.95;5.50;;;18.60;99.90;;;;;;5026333;28;20049;-48
2022/07/19 01:57:17;;;;;;;6.25;5.35;;;18.60;99.90;;;;;;5029401;28;20041;-49
2022/07/19 01:59:43;;;;;;;6.32;5.60;;;18.50;99.90;;;;;;5032916;28;20155;-48
2022/07/19 02:02:09;;;;;;;6.03;5.35;;;18.50;99.90;;;;;;5035652;28;20443;-51
2022/07/19 02:04:35;;;;;;;6.90;6.25;;;18.40;99.90;;;;;;5028349;28;20037;-50
2022/07/19 02:07:00;;;;;;;6.93;6.10;;;18.40;99.90;;;;;;5032587;28;20565;-48
2022/07/19 02:09:26;;;;;;;6.53;5.55;;;18.40;99.90;;;;;;5031896;28;20036;-47
2022/07/19 02:11:51;;;;;;;7.40;5.78;;;18.30;99.90;;;;;;5030688;28;20037;-46
2022/07/19 02:14:17;;;;;;;6.80;5.72;;;18.30;99.90;;;;;;5035748;28;20049;-51
2022/07/19 02:16:43;;;;;;;8.20;5.30;;;18.20;99.90;;;;;;5035295;28;20049;-46
2022/07/19 02:19:09;;;;;;;6.28;5.00;;;18.20;99.90;;;;;;5029889;28;20065;-48
2022/07/19 02:21:36;;;;;;;6.78;5.53;;;18.10;99.90;;;;;;5035199;28;20123;-51
2022/07/19 02:24:03;;;;;;;6.63;5.23;;;18.10;99.90;;;;;;5029629;28;20045;-50
2022/07/19 02:26:29;;;;;;;6.65;5.15;;;18.10;99.90;;;;;;5032151;28;20041;-48
2022/07/19 02:28:54;;;;;;;7.93;5.30;;;18.10;99.90;;;;;;5031510;28;20124;-50
2022/07/19 02:31:20;;;;;;;9.70;5.35;;;18.00;99.90;;;;;;5029472;28;20049;-52
2022/07/19 02:33:46;;;;;;;7.30;6.13;;;18.00;99.90;;;;;;5029911;28;20046;-48
2022/07/19 02:36:12;;;;;;;5.57;4.93;;;18.00;99.90;;;;;;5033384;28;20034;-50
2022/07/19 02:38:38;;;;;;;6.13;5.53;;;18.00;99.90;;;;;;5027937;28;20494;-47
2022/07/19 02:41:04;;;;;;;6.95;5.20;;;17.90;99.90;;;;;;5025878;28;20041;-51
2022/07/19 02:43:29;;;;;;;6.18;5.15;;;17.80;99.90;;;;;;5031737;28;20037;-51
2022/07/19 02:45:55;;;;;;;5.78;5.07;;;17.80;99.90;;;;;;5030056;28;20056;-51
2022/07/19 02:48:20;;;;;;;7.60;5.47;;;17.70;99.90;;;;;;5033968;28;20036;-48
2022/07/19 02:50:46;;;;;;;5.63;4.82;;;17.70;99.90;;;;;;5028104;28;20049;-47
2022/07/19 02:53:12;;;;;;;6.45;4.72;;;17.70;99.90;;;;;;5032070;28;20053;-47
2022/07/19 02:55:37;;;;;;;8.88;5.57;;;17.70;99.90;;;;;;5012512;28;20048;-48
2022/07/19 02:58:03;;;;;;;7.30;5.40;;;17.70;99.90;;;;;;5031573;28;20932;-49
2022/07/19 03:00:29;;;;;;;6.20;5.53;;;17.80;99.90;;;;;;5035631;28;20033;-48
2022/07/19 03:02:54;;;;;;;6.63;5.68;;;17.60;99.90;;;;;;5033347;28;20052;-51
2022/07/19 03:05:20;;;;;;;6.80;5.07;;;17.60;99.90;;;;;;5033953;28;20470;-51
2022/07/19 03:07:46;;;;;;;8.35;5.60;;;17.60;99.90;;;;;;5029973;28;22151;-47
2022/07/19 03:10:11;;;;;;;10.35;5.75;;;17.60;99.90;;;;;;5033879;28;20044;-49
2022/07/19 03:12:37;;;;;;;6.13;5.53;;;17.50;99.90;;;;;;5029304;28;20049;-47
2022/07/19 03:15:03;;;;;;;6.78;5.25;;;17.50;99.90;;;;;;5038274;28;20068;-48
2022/07/19 03:17:29;;;;;;;6.93;5.75;;;17.50;99.90;;;;;;5032944;28;20127;-50
2022/07/19 03:19:54;;;;;;;7.18;5.25;;;17.40;99.90;;;;;;5031519;28;20144;-50
2022/07/19 03:22:20;;;;;;;6.97;5.35;;;17.40;99.90;;;;;;5030773;28;20079;-52
2022/07/19 03:24:46;;;;;;;6.03;4.80;;;17.40;99.90;;;;;;5032102;28;20046;-52
2022/07/19 03:27:11;;;;;;;8.95;5.40;;;17.40;99.90;;;;;;5030250;28;20348;-48
2022/07/19 03:29:37;;;;;;;5.85;5.20;;;17.30;99.90;;;;;;5015668;28;20034;-49
2022/07/19 03:32:02;;;;;;;7.00;5.68;;;17.50;99.90;;;;;;5010010;28;20037;-50
2022/07/19 03:34:28;;;;;;;6.70;5.80;;;17.30;99.90;;;;;;5028647;28;20537;-48
2022/07/19 03:36:55;;;;;;;6.30;5.65;;;17.30;99.90;;;;;;5036286;28;20064;-51
2022/07/19 03:39:20;;;;;;;8.82;5.57;;;17.30;99.90;;;;;;5031121;28;20049;-49
2022/07/19 03:41:46;;;;;;;7.07;5.57;;;17.30;99.90;;;;;;5027774;28;20107;-52
2022/07/19 03:44:12;;;;;;;7.47;5.57;;;17.30;99.90;;;;;;5032318;28;20043;-47
2022/07/19 03:46:38;;;;;;;5.70;5.20;;;17.30;99.90;;;;;;5030384;28;20029;-49
2022/07/19 03:49:03;;;;;;;8.75;5.47;;;17.30;99.90;;;;;;5028712;28;20037;-48
2022/07/19 03:51:29;;;;;;;7.55;5.57;;;17.30;99.90;;;;;;5033417;28;20054;-49
2022/07/19 03:53:54;;;;;;;8.68;5.63;;;17.30;99.90;;;;;;5029495;28;20048;-49
2022/07/19 03:56:20;;;;;;;6.78;6.07;;;17.40;99.90;;;;;;5033921;28;20124;-49
2022/07/19 03:58:49;;;;;;;8.10;5.60;;;17.40;99.90;;;;;;5033172;28;20045;-48
2022/07/19 04:01:15;;;;;;;6.60;5.68;;;17.40;99.90;;;;;;5026630;28;20091;-47
2022/07/19 04:03:41;;;;;;;7.72;5.60;;;17.50;99.90;;;;;;5030395;28;20159;-48
2022/07/19 04:06:09;;;;;;;9.00;6.30;;;17.50;99.90;;;;;;5030689;28;20482;-45
2022/07/19 04:08:35;;;;;;;8.27;6.50;;;17.60;99.90;;;;;;5033138;28;20079;-47
2022/07/19 04:11:01;;;;;;;6.38;5.78;;;17.60;99.90;;;;;;5030913;28;20447;-50
2022/07/19 04:13:27;;;;;;;8.27;5.78;;;17.60;99.90;;;;;;5034167;28;20068;-47
2022/07/19 04:15:53;;;;;;;6.68;5.95;;;17.70;99.90;;;;;;5032821;28;20041;-47
2022/07/19 04:18:18;;;;;;;7.97;6.32;;;17.70;99.90;;;;;;5034095;28;20486;-47
2022/07/19 04:20:44;;;;;;;7.88;6.10;;;17.70;99.90;;;;;;5035373;28;20452;-46
2022/07/19 04:23:10;;;;;;;7.50;6.55;;;17.80;99.90;;;;;;5034193;28;20411;-51
2022/07/19 04:25:36;;;;;;;7.03;6.07;;;;;;;;;;5028348;28;20132;-50
2022/07/19 04:28:02;;;;;;;7.95;5.68;;;17.90;99.90;;;;;;5023798;28;20075;-48
2022/07/19 04:30:29;;;;;;;8.37;6.13;;;18.00;99.90;;;;;;5029086;28;20506;-46
2022/07/19 04:32:54;;;;;;;9.95;6.07;;;18.10;99.90;;;;;;5028243;28;20537;-49
2022/07/19 04:35:20;;;;;;;8.27;5.82;;;18.10;99.90;;;;;;5031715;28;20132;-47
2022/07/19 04:37:46;;;;;;;13.90;6.25;;;18.10;99.90;;;;;;5028960;28;20471;-49
2022/07/19 04:40:12;;;;;;;10.20;6.15;;;18.20;99.90;;;;;;5031006;28;20056;-48
2022/07/19 04:42:37;;;;;;;7.82;6.53;;;18.40;99.90;;;;;;5012629;28;20091;-47
2022/07/19 04:45:04;;;;;;;6.78;5.85;;;18.90;99.90;;;;;;5032453;28;20045;-51
2022/07/19 04:47:30;;;;;;;9.00;6.43;;;19.50;99.90;;;;;;5033782;28;20033;-50
2022/07/19 04:49:55;;;;;;;7.00;5.60;;;20.10;99.90;;;;;;5030164;28;20053;-48
2022/07/19 04:52:21;;;;;;;10.05;6.57;;;20.70;99.90;;;;;;5024123;28;20049;-49
2022/07/19 04:54:47;;;;;;;10.40;6.10;;;21.20;99.90;;;;;;5035053;28;20133;-50
2022/07/19 04:57:13;;;;;;;11.95;6.70;;;21.60;99.90;;;;;;5028296;28;20143;-49
2022/07/19 04:59:39;;;;;;;6.93;6.15;;;22.00;99.90;;;;;;5011278;28;20056;-46
2022/07/19 05:02:05;;;;;;;8.75;5.80;;;22.30;99.90;;;;;;5029806;28;20041;-46
2022/07/19 05:04:30;;;;;;;8.50;6.45;;;22.70;99.90;;;;;;5031403;28;21436;-47
2022/07/19 05:06:56;;;;;;;8.60;6.07;;;22.90;99.90;;;;;;5030515;28;20029;-47
2022/07/19 05:09:26;;;;;;;8.63;6.80;;;23.20;99.90;;;;;;5029049;28;20171;-51
2022/07/19 05:11:52;;;;;;;8.52;6.22;;;23.50;99.90;;;;;;5031747;28;20069;-48
2022/07/19 05:14:18;;;;;;;9.35;6.70;;;23.80;99.90;;;;;;5037057;28;20063;-50
2022/07/19 05:16:44;;;;;;;7.20;6.03;;;24.40;99.90;;;;;;5033319;28;20135;-47
2022/07/19 05:19:09;;;;;;;11.27;6.65;;;24.70;99.00;;;;;;5030157;28;20496;-50
2022/07/19 05:21:35;;;;;;;8.18;6.03;;;24.80;98.10;;;;;;5032665;28;20029;-47
2022/07/19 05:24:01;;;;;;;7.72;5.80;;;25.00;97.50;;;;;;5038177;28;20763;-49
2022/07/19 05:26:26;;;;;;;10.40;5.70;;;25.10;97.40;;;;;;5029761;28;20106;-48
2022/07/19 05:28:52;;;;;;;8.48;6.25;;;25.80;96.00;;;;;;5031477;28;20040;-46
2022/07/19 05:31:17;;;;;;;8.40;5.88;;;25.90;95.80;;;;;;5036628;28;20479;-50
2022/07/19 05:33:43;;;;;;;7.32;5.63;;;26.20;95.10;;;;;;5034311;28;20037;-49
2022/07/19 05:36:10;;;;;;;8.73;5.72;;;26.20;93.80;;;;;;5039696;28;21370;-50
2022/07/19 05:38:38;;;;;;;6.20;5.60;;;26.50;93.40;;;;;;5031224;28;20167;-48
2022/07/19 05:41:04;;;;;;;7.18;5.63;;;26.90;92.90;;;;;;5034845;28;20120;-47
2022/07/19 05:43:30;;;;;;;8.90;5.75;;;27.20;93.10;;;;;;5031477;28;20037;-48
2022/07/19 05:45:56;;;;;;;6.97;5.45;;;27.60;92.10;;;;;;5032690;28;20048;-51
2022/07/19 05:48:21;;;;;;;6.60;6.00;;;28.00;90.60;;;;;;5027344;28;20170;-47
2022/07/19 05:50:47;;;;;;;11.23;5.95;;;27.70;90.90;;;;;;5012134;28;20038;-49
2022/07/19 05:53:12;;;;;;;6.93;5.80;;;28.40;89.90;;;;;;5034966;28;20198;-49
2022/07/19 05:55:38;;;;;;;6.82;6.05;;;28.30;89.80;;;;;;5031039;28;20525;-50
2022/07/19 05:58:03;;;;;;;6.57;5.40;;;28.30;89.50;;;;;;5036941;28;20443;-52
2022/07/19 06:00:29;;;;;;;6.82;5.90;;;28.30;87.10;;;;;;5029000;28;20419;-50
2022/07/19 06:02:55;;;;;;;8.38;5.68;;;28.90;88.10;;;;;;5031516;28;20037;-53
2022/07/19 06:05:20;;;;;;;9.23;6.18;;;28.90;86.20;;;;;;5035852;28;20032;-49
2022/07/19 06:07:46;;;;;;;7.07;5.78;;;29.30;85.70;;;;;;5036643;28;20041;-51
2022/07/19 06:10:11;;;;;;;8.13;5.57;;;29.20;85.30;;;;;;5032392;28;20053;-50
2022/07/19 06:12:37;;;;;;;6.70;5.10;;;29.60;84.10;;;;;;5042482;28;20040;-51
2022/07/19 06:15:03;;;;;;;8.38;5.85;;;30.00;84.20;;;;;;5053235;28;20128;-51
2022/07/19 06:17:29;;;;;;;8.55;5.63;;;30.10;82.90;;;;;;5031299;28;20526;-50
2022/07/19 06:19:54;;;;;;;8.30;5.18;;;30.40;81.90;;;;;;5027106;28;20040;-51
2022/07/19 06:22:20;;;;;;;7.00;5.50;;;30.70;81.60;;;;;;5019686;28;20519;-48
2022/07/19 06:24:45;;;;;;;7.43;5.53;;;30.50;81.00;;;;;;5027265;28;20050;-50
2022/07/19 06:27:11;;;;;;;6.55;5.80;;;30.90;79.30;;;;;;5020517;28;20073;-52
2022/07/19 06:29:36;;;;;;;7.22;6.28;;;30.90;78.20;;;;;;5026065;28;20108;-52
2022/07/19 06:32:03;;;;;;;9.23;5.18;;;31.20;78.00;;;;;;5021569;28;20153;-51
2022/07/19 06:34:28;;;;;;;7.00;5.40;;;31.70;79.10;;;;;;5041272;28;20045;-52
2022/07/19 06:36:54;;;;;;;8.95;5.25;;;31.60;77.30;;;;;;5027177;28;20341;-48
2022/07/19 06:39:19;;;;;;;7.03;5.25;;;31.70;76.40;;;;;;5025957;28;20045;-48
2022/07/19 06:41:46;;;;;;;6.80;5.85;;;31.20;75.40;;;;;;5025009;28;20229;-49
2022/07/19 06:44:12;;;;;;;5.72;5.22;;;31.20;76.80;;;;;;5028803;28;20056;-49
2022/07/19 06:46:37;;;;;;;7.57;5.50;;;31.00;76.80;;;;;;5013544;28;20049;-48
2022/07/19 06:49:03;;;;;;;9.32;5.90;;;31.00;76.70;;;;;;5025760;28;20391;-49
2022/07/19 06:51:28;;;;;;;8.90;5.50;;;31.30;75.50;;;;;;5025169;28;20177;-50
2022/07/19 06:53:54;;;;;;;6.07;5.03;;;31.50;76.50;;;;;;5038046;28;20037;-47
2022/07/19 06:56:20;;;;;;;9.38;5.90;;;32.00;75.40;;;;;;5042338;28;20101;-51
2022/07/19 06:58:45;;;;;;;7.17;5.47;;;32.10;75.60;;;;;;5034882;28;20167;-51
2022/07/19 07:01:11;;;;;;;11.37;5.50;;;32.10;74.10;;;;;;5029039;28;20038;-48
2022/07/19 07:03:37;;;;;;;9.03;5.77;;;31.80;72.80;;;;;;5033760;28;20073;-51
2022/07/19 07:06:03;;;;;;;9.30;5.28;;;31.70;73.40;;;;;;5033683;28;20038;-48
2022/07/19 07:08:29;;;;;;;9.20;5.37;;;31.80;74.10;;;;;;5033461;28;20037;-52
2022/07/19 07:10:54;;;;;;;5.37;4.70;;;31.80;73.60;;;;;;5031164;28;20113;-50
2022/07/19 07:13:20;;;;;;;7.73;5.00;;;31.90;75.00;;;;;;5013882;28;20069;-53
2022/07/19 07:15:46;;;;;;;8.13;5.50;;;32.30;73.20;;;;;;5013585;28;20046;-48
2022/07/19 07:18:11;;;;;;;8.37;5.13;;;32.30;72.70;;;;;;5032626;28;20049;-51
2022/07/19 07:20:37;;;;;;;6.00;4.57;;;31.80;71.80;;;;;;5032728;28;20835;-46
2022/07/19 07:23:03;;;;;;;6.63;4.90;;;31.90;73.70;;;;;;5035146;28;20049;-48
2022/07/19 07:25:29;;;;;;;8.13;4.53;;;32.10;72.90;;;;;;5035506;28;20057;-50
2022/07/19 07:27:55;;;;;;;5.50;4.70;;;31.70;71.10;;;;;;5014011;28;20049;-47
2022/07/19 07:30:20;;;;;;;7.97;4.80;;;31.50;70.60;;;;;;5030256;28;20042;-47
2022/07/19 07:32:46;;;;;;;8.30;4.90;;;31.60;73.20;;;;;;5032001;28;20055;-51
2022/07/19 07:35:11;;;;;;;5.60;5.07;;;31.60;73.80;;;;;;5031505;28;20041;-50
2022/07/19 07:37:37;;;;;;;5.97;4.07;;;31.60;73.40;;;;;;5032726;28;20042;-47
2022/07/19 07:40:03;;;;;;;8.67;4.43;;;31.80;74.10;;;;;;5028338;28;20079;-48
2022/07/19 07:42:31;;;;;;;7.63;5.27;;;32.20;73.90;;;;;;5029867;28;20069;-48
2022/07/19 07:44:59;;;;;;;5.45;4.82;;;31.90;73.10;;;;;;5032594;28;20088;-50
2022/07/19 07:47:24;;;;;;;5.20;4.25;;;31.90;72.90;;;;;;5046790;28;20037;-50
2022/07/19 07:49:50;;;;;;;7.40;4.67;;;31.30;72.40;;;;;;5040941;28;20037;-47
2022/07/19 07:52:16;;;;;;;8.63;4.50;;;30.70;73.70;;;;;;5037342;28;20045;-49
2022/07/19 07:54:41;;;;;;;7.10;4.38;;;30.20;74.30;;;;;;5042636;28;20049;-48
2022/07/19 07:57:08;;;;;;;5.43;3.63;;;30.20;74.50;;;;;;5034726;28;20068;-48
2022/07/19 07:59:34;;;;;;;5.28;3.72;;;29.80;75.10;;;;;;5042974;28;20181;-46
2022/07/19 08:01:59;;;;;;;8.15;3.75;;;29.90;75.30;;;;;;5032122;28;20079;-46
2022/07/19 08:04:26;;;;;;;7.50;3.55;;;29.70;75.30;;;;;;5041936;28;20113;-47
2022/07/19 08:06:51;;;;;;;5.50;3.40;;;29.80;75.90;;;;;;5051113;28;20115;-50
2022/07/19 08:09:17;;;;;;;5.20;3.70;;;30.10;76.70;;;;;;5034640;28;20555;-48
2022/07/19 08:11:43;;;;;;;5.53;3.70;;;30.20;76.50;;;;;;5035869;28;20049;-48
2022/07/19 08:14:08;;;;;;;8.57;3.80;;;30.20;78.60;;;;;;5026487;28;20108;-48
2022/07/19 08:16:34;;;;;;;4.10;3.40;;;30.40;77.80;;;;;;5037933;28;20041;-51
2022/07/19 08:18:59;;;;;;;6.55;3.55;;;30.40;77.30;;;;;;5032730;28;20050;-49
2022/07/19 08:21:25;;;;;;;6.78;3.58;;;30.50;76.80;;;;;;5037285;28;20134;-48
2022/07/19 08:23:52;;;;;;;5.35;3.33;;;30.30;77.10;;;;;;5035187;28;20041;-49
2022/07/19 08:26:17;;;;;;;5.18;3.30;;;30.30;76.10;;;;;;5042829;28;20094;-47
2022/07/19 08:28:44;;;;;;;9.20;3.15;;;30.30;75.40;;;;;;5031962;28;20053;-50
2022/07/19 08:31:10;;;;;;;5.13;3.40;;;30.50;76.70;;;;;;5036304;28;20515;-48
2022/07/19 08:33:37;;;;;;;8.27;3.20;;;30.50;75.60;;;;;;5035096;28;20041;-48
2022/07/19 08:36:03;;;;;;;5.85;3.00;;;30.70;76.70;;;;;;5036194;28;20102;-52
2022/07/19 08:38:28;;;;;;;7.00;3.25;;;30.90;75.30;;;;;;5023913;28;20112;-48
2022/07/19 08:40:55;;;;;;;6.97;2.90;;;31.00;74.80;;;;;;5038042;28;20037;-48
2022/07/19 08:43:22;;;;;;;4.47;2.40;;;31.00;74.50;;;;;;5032221;28;20044;-50
2022/07/19 08:45:48;;;;;;;5.60;2.13;;;31.20;74.70;;;;;;5044841;28;20498;-48
2022/07/19 08:48:15;;;;;;;4.47;2.47;;;31.40;75.80;;;;;;5037469;28;20041;-51
2022/07/19 08:50:40;;;;;;;5.22;2.42;;;31.50;71.90;;;;;;5029808;28;20407;-50
2022/07/19 08:53:06;;;;;;;4.28;2.10;;;31.60;69.40;;;;;;5035706;28;20049;-47
2022/07/19 08:55:32;;;;;;;6.73;2.63;;;31.70;68.80;;;;;;5035406;28;20522;-48
2022/07/19 08:58:00;;;;;;;6.07;2.20;;;32.00;70.40;;;;;;5028853;28;20056;-47
2022/07/19 09:00:30;;;;;;;4.53;2.40;;;32.20;67.50;;;;;;5029373;28;20530;-49
2022/07/19 09:02:59;;;;;;;5.22;2.30;;;32.30;69.00;;;;;;5029121;28;21486;-47
2022/07/19 09:05:26;;;;;;;5.00;2.10;;;32.40;67.20;;;;;;5032095;28;20045;-50
2022/07/19 09:08:04;;;;;;;5.15;2.25;;;32.70;67.40;;;;;;5033540;28;20037;-47
2022/07/19 09:10:31;;;;;;;6.78;2.85;;;32.70;66.90;;;;;;5039584;28;20436;-49
2022/07/19 09:12:59;;;;;;;;;;;32.80;65.90;;;;;;5024621;28;20636;-47
2022/07/19 09:15:46;;;;;;;5.32;2.05;;;33.00;66.60;;;;;;5036248;28;19921;-47
2022/07/19 09:18:22;;;;;;;6.35;2.25;;;32.80;66.70;;;;;;5021966;28;20096;-48
2022/07/19 09:20:53;;;;;;;4.22;2.10;;;33.00;65.40;;;;;;5012054;28;20354;-48
2022/07/19 09:23:19;;;;;;;10.35;2.13;;;32.90;64.60;;;;;;5012084;28;20491;-52
2022/07/19 09:25:57;;;;;;;6.57;2.23;;;33.20;65.00;;;;;;5026354;28;20041;-51
2022/07/19 09:28:25;;;;;;;4.90;2.42;;;33.30;65.80;;;;;;5034978;28;20033;-51
2022/07/19 09:30:56;;;;;;;6.07;2.50;;;33.20;65.30;;;;;;5030786;28;20483;-47
2022/07/19 09:33:29;;;;;;;6.65;2.30;;;33.40;66.00;;;;;;5020523;28;20406;-49
2022/07/19 09:36:00;;;;;;;4.03;2.25;;;33.40;65.30;;;;;;5031570;28;20038;-50
2022/07/19 09:38:31;;;;;;;5.07;2.13;;;33.50;62.50;;;;;;5031658;28;20448;-48
2022/07/19 09:41:11;;;;;;;9.77;2.67;;;33.40;63.30;;;;;;5031702;28;20037;-51
2022/07/19 09:43:53;;;;;;;3.83;1.95;;;33.60;63.70;;;;;;5031703;28;20045;-47
2022/07/19 09:46:39;;;;;;;6.32;2.20;;;33.70;63.30;;;;;;5042653;28;20056;-47
2022/07/19 09:49:16;;;;;;;5.97;2.05;;;33.70;63.70;;;;;;5050153;28;20087;-47
2022/07/19 09:51:44;;;;;;;3.10;2.15;;;33.50;62.90;;;;;;5051341;28;20053;-48
2022/07/19 09:54:13;;;;;;;7.68;2.67;;;33.80;64.10;;;;;;5051426;28;20140;-48
2022/07/19 09:56:40;;;;;;;5.20;2.72;;;33.90;63.80;;;;;;5051465;28;20040;-48
2022/07/19 09:59:07;;;;;;;6.88;2.10;;;33.80;62.40;;;;;;5041852;28;20383;-47
2022/07/19 10:01:33;;;;;;;4.18;2.17;;;33.90;62.00;;;;;;5021336;28;20042;-47
2022/07/19 10:04:07;;;;;;;3.28;2.10;;;34.00;63.20;;;;;;5015364;28;20137;-48
2022/07/19 10:06:33;;;;;;;4.15;1.92;;;33.90;62.40;;;;;;5015356;28;20057;-46
2022/07/19 10:09:01;;;;;;;4.85;2.08;;;34.00;61.70;;;;;;5001408;28;20538;-48
2022/07/19 10:11:28;;;;;;;5.43;2.15;;;34.20;60.90;;;;;;5054904;28;20044;-48
2022/07/19 10:13:55;;;;;;;4.57;1.95;;;34.30;61.40;;;;;;5046457;28;20368;-47
2022/07/19 10:16:41;;;;;;;4.20;1.77;;;34.50;60.50;;;;;;5032233;28;20053;-48
2022/07/19 10:19:17;;;;;;;5.43;2.03;;;34.40;60.80;;;;;;5037734;28;20049;-47
2022/07/19 10:21:44;;;;;;;5.63;2.17;;;34.70;60.80;;;;;;5039711;28;20049;-51
2022/07/19 10:24:10;;;;;;;3.50;1.92;;;34.70;60.00;;;;;;5043793;28;20094;-47
2022/07/19 10:26:37;;;;;;;2.27;1.87;;;34.60;58.30;;;;;;5041717;28;20044;-48
2022/07/19 10:29:08;;;;;;;3.13;2.00;;;34.40;57.60;;;;;;5042169;28;20044;-50
2022/07/19 10:31:35;;;;;;;3.22;1.80;;;34.60;58.30;;;;;;5036631;28;20091;-48
2022/07/19 10:34:09;;;;;;;4.55;2.05;;;34.60;58.70;;;;;;5018012;28;20092;-48
2022/07/19 10:36:36;;;;;;;4.93;2.58;;;34.70;57.50;;;;;;5041807;28;20559;-48
2022/07/19 10:39:35;;;;;;;4.55;1.90;;;34.80;58.10;;;;;;5041225;28;20033;-49
2022/07/19 10:42:19;;;;;;;4.57;1.63;;;34.70;56.10;;;;;;5036635;28;20040;-49
2022/07/19 10:44:56;;;;;;;5.70;1.88;;;34.70;56.30;;;;;;5033383;28;20516;-49
2022/07/19 10:47:45;;;;;;;4.88;2.05;;;35.00;58.20;;;;;;5039071;28;20048;-49
2022/07/19 10:50:18;;;;;;;6.55;2.38;;;35.20;57.90;;;;;;5023312;28;20056;-50
2022/07/19 10:52:45;;;;;;;3.53;1.80;;;35.20;57.20;;;;;;5040790;28;20385;-52
2022/07/19 10:55:17;;;;;;;4.03;1.60;;;35.20;54.10;;;;;;5039682;28;20475;-50
2022/07/19 10:58:11;;;;;;;4.90;2.10;;;35.50;55.40;;;;;;5038018;28;20049;-50
2022/07/19 11:00:49;;;;;;;4.72;1.77;;;35.50;55.40;;;;;;5032409;28;20065;-48
2022/07/19 11:03:21;;;;;;;3.08;1.80;;;35.50;55.00;;;;;;5033390;28;20037;-48
2022/07/19 11:05:59;;;;;;;2.75;1.73;;;35.60;54.10;;;;;;5027608;28;20049;-50
2022/07/19 11:08:39;;;;;;;3.38;1.77;;;35.60;54.40;;;;;;5016958;28;20040;-47
2022/07/19 11:11:10;;;;;;;2.75;1.50;;;35.80;53.80;;;;;;5036648;28;20092;-48
2022/07/19 11:13:37;;;;;;;4.82;1.83;;;35.80;53.50;;;;;;5031724;28;20353;-48
2022/07/19 11:16:04;;;;;;;3.72;1.73;;;35.80;52.70;;;;;;5033721;28;20045;-51
2022/07/19 11:18:33;;;;;;;2.40;1.55;;;35.90;51.60;;;;;;5046778;28;20033;-51
2022/07/19 11:21:01;;;;;;;6.68;1.70;;;36.00;52.10;;;;;;5026986;28;21950;-53
2022/07/19 11:23:32;;;;;;;3.45;1.70;;;36.20;54.10;;;;;;5036400;28;20482;-48
2022/07/19 11:26:07;;;;;;;2.92;1.45;;;36.20;52.10;;;;;;5043049;28;20037;-51
2022/07/19 11:28:32;;;;;;;3.40;1.60;;;36.20;50.90;;;;;;5034542;28;20095;-51
2022/07/19 11:30:58;;;;;;;3.23;1.73;;;35.90;50.50;;;;;;5042332;28;20422;-48
2022/07/19 11:33:24;;;;;;;3.90;1.70;;;36.10;50.80;;;;;;5043185;28;20144;-53
2022/07/19 11:35:57;;;;;;;3.20;1.77;;;36.20;51.30;;;;;;5038694;28;20082;-49
2022/07/19 11:38:32;;;;;;;5.05;1.75;;;36.30;51.30;;;;;;5044856;28;20045;-52
2022/07/19 11:40:58;;;;;;;4.22;1.80;;;36.40;50.40;;;;;;5044268;28;20068;-48
2022/07/19 11:43:24;;;;;;;8.47;1.50;;;36.30;50.50;;;;;;5022720;28;20109;-48
2022/07/19 11:45:50;;;;;;;1.93;1.43;;;36.40;49.40;;;;;;5037027;28;20103;-47
2022/07/19 11:48:26;;;;;;;5.38;1.60;;;36.50;50.60;;;;;;5046212;28;20082;-50
2022/07/19 11:50:58;;;;;;;4.45;1.80;;;36.50;50.60;;;;;;5034379;28;20041;-47
2022/07/19 11:53:23;;;;;;;2.75;1.50;;;36.70;50.50;;;;;;5017060;28;20083;-50
2022/07/19 11:55:49;;;;;;;4.73;1.50;;;36.60;48.80;;;;;;5039182;28;20045;-49
2022/07/19 11:58:15;;;;;;;1.90;1.27;;;36.60;50.10;;;;;;5040430;28;20503;-48
2022/07/19 12:00:43;;;;;;;3.67;1.43;;;36.30;48.20;;;;;;5033914;28;20510;-49
2022/07/19 12:03:14;;;;;;;3.88;1.73;;;36.20;47.70;;;;;;5026466;28;20155;-52
2022/07/19 12:05:53;;;;;;;4.18;1.60;;;36.50;48.40;;;;;;5032592;28;20464;-49
2022/07/19 12:08:18;;;;;;;2.67;1.48;;;36.50;46.90;;;;;;5037952;28;20052;-50
2022/07/19 12:10:49;;;;;;;1.50;1.40;;;36.70;47.90;;;;;;5041371;28;20041;-49
2022/07/19 12:13:27;;;;;;;2.17;1.60;;;36.80;47.00;;;;;;5040617;28;20094;-49
2022/07/19 12:15:55;;;;;;;1.95;1.52;;;36.70;46.40;;;;;;5041063;28;20040;-50
2022/07/19 12:18:54;;;;;;;5.97;1.60;;;36.70;46.90;;;;;;5039318;28;20041;-49
2022/07/19 12:21:31;;;;;;;6.00;1.50;;;36.80;48.30;;;;;;5045805;28;20055;-52
2022/07/19 12:24:17;;;;;;;3.05;1.80;;;36.80;44.90;;;;;;5043037;28;20561;-48
2022/07/19 12:26:55;;;;;;;5.85;1.73;;;36.70;46.50;;;;;;5034841;28;20045;-49
2022/07/19 12:29:30;;;;;;;3.83;1.60;;;36.80;46.30;;;;;;5037509;28;20517;-49
2022/07/19 12:32:05;;;;;;;6.00;1.38;;;36.70;46.60;;;;;;5022769;28;20048;-48
2022/07/19 12:34:46;;;;;;;2.97;1.40;;;36.90;46.00;;;;;;5040952;28;20474;-49
2022/07/19 12:37:25;;;;;;;2.45;1.60;;;36.70;45.70;;;;;;5036566;28;20045;-50
2022/07/19 12:40:16;;;;;;;2.60;1.48;;;36.80;45.40;;;;;;5037629;28;20049;-53
2022/07/19 12:42:48;;;;;;;5.28;1.55;;;36.80;46.10;;;;;;5020821;28;20512;-49
2022/07/19 12:45:22;;;;;;;4.13;1.60;;;37.00;46.70;;;;;;5029335;28;20445;-48
2022/07/19 12:47:49;;;;;;;3.70;1.40;;;36.90;46.30;;;;;;5033981;28;20041;-51
2022/07/19 12:50:35;;;;;;;2.53;1.38;;;37.00;46.20;;;;;;5037074;28;20049;-51
2022/07/19 12:53:04;;;;;;;5.22;1.45;;;37.10;46.40;;;;;;5033674;28;21467;-48